createdAt,value
2023-04-18T00:00:31.515Z,65.93
2023-04-18T00:03:18.581Z,66.14
2023-04-18T00:06:05.925Z,66.49
2023-04-18T00:08:52.806Z,66.00
2023-04-18T00:11:39.649Z,66.07
2023-04-18T00:14:26.423Z,66.35
2023-04-18T00:17:13.467Z,65.92
2023-04-18T00:20:02.276Z,65.97
2023-04-18T00:22:49.122Z,66.37
2023-04-18T00:25:35.947Z,66.12
2023-04-18T00:28:22.717Z,66.14
2023-04-18T00:31:09.656Z,65.99
2023-04-18T00:33:56.479Z,66.41
2023-04-18T00:36:43.352Z,66.16
2023-04-18T00:39:30.251Z,66.28
2023-04-18T00:42:17.067Z,66.04
2023-04-18T00:45:04.244Z,66.38
2023-04-18T00:47:51.667Z,66.66
2023-04-18T00:50:38.688Z,66.00
2023-04-18T00:53:25.546Z,66.05
2023-04-18T00:56:12.581Z,66.50
2023-04-18T00:58:59.470Z,66.30
2023-04-18T01:01:46.569Z,66.15
2023-04-18T01:04:33.576Z,66.51
2023-04-18T01:07:20.531Z,66.45
2023-04-18T01:10:08.516Z,66.34
2023-04-18T01:13:11.297Z,66.52
2023-04-18T01:15:59.037Z,66.38
2023-04-18T01:18:46.293Z,66.59
2023-04-18T01:21:37.459Z,66.31
2023-04-18T01:24:26.703Z,66.21
2023-04-18T01:27:14.080Z,66.40
2023-04-18T01:30:01.102Z,66.50
2023-04-18T01:32:48.046Z,66.66
2023-04-18T01:35:34.956Z,66.76
2023-04-18T01:38:21.790Z,66.88
2023-04-18T01:41:08.683Z,66.18
2023-04-18T01:43:55.502Z,66.13
2023-04-18T01:46:42.557Z,66.25
2023-04-18T01:49:29.454Z,66.27
2023-04-18T01:52:17.404Z,66.10
2023-04-18T01:55:04.660Z,66.12
2023-04-18T01:57:51.557Z,66.18
2023-04-18T02:00:38.397Z,66.37
2023-04-18T02:03:25.768Z,66.79
2023-04-18T02:06:12.729Z,66.56
2023-04-18T02:08:59.543Z,66.55
2023-04-18T02:11:46.497Z,66.84
2023-04-18T02:14:35.235Z,66.20
2023-04-18T02:17:23.660Z,66.57
2023-04-18T02:20:10.953Z,66.63
2023-04-18T02:22:58.780Z,66.70
2023-04-18T02:25:45.808Z,66.62
2023-04-18T02:28:32.808Z,66.86
2023-04-18T02:31:19.705Z,66.64
2023-04-18T02:34:07.024Z,66.58
2023-04-18T02:36:53.872Z,66.39
2023-04-18T02:39:40.708Z,66.40
2023-04-18T02:42:27.559Z,66.72
2023-04-18T02:45:14.493Z,66.72
2023-04-18T02:48:01.497Z,66.58
2023-04-18T02:50:48.324Z,66.20
2023-04-18T02:53:35.457Z,66.59
2023-04-18T02:56:22.487Z,66.83
2023-04-18T02:59:09.336Z,66.27
2023-04-18T03:01:56.178Z,66.24
2023-04-18T03:04:43.263Z,66.10
2023-04-18T03:07:30.915Z,66.29
2023-04-18T03:10:18.304Z,66.69
2023-04-18T03:13:05.119Z,66.39
2023-04-18T03:15:51.981Z,66.68
2023-04-18T03:18:38.967Z,66.41
2023-04-18T03:21:25.826Z,66.35
2023-04-18T03:24:12.831Z,66.05
2023-04-18T03:27:00.550Z,66.56
2023-04-18T03:29:47.487Z,66.79
2023-04-18T03:32:35.271Z,66.48
2023-04-18T03:35:22.296Z,66.50
2023-04-18T03:38:09.140Z,66.68
2023-04-18T03:40:55.981Z,66.08
2023-04-18T03:43:42.938Z,66.02
2023-04-18T03:46:30.041Z,66.56
2023-04-18T03:49:16.875Z,66.41
2023-04-18T03:52:03.807Z,66.54
2023-04-18T03:54:50.679Z,66.00
2023-04-18T03:57:37.512Z,66.69
2023-04-18T04:00:24.559Z,66.89
2023-04-18T04:03:11.568Z,66.06
2023-04-18T04:05:58.514Z,66.72
2023-04-18T04:08:45.510Z,66.24
2023-04-18T04:11:32.386Z,66.28
2023-04-18T04:14:19.335Z,66.33
2023-04-18T04:17:06.357Z,66.20
2023-04-18T04:19:53.380Z,66.42
2023-04-18T04:22:40.368Z,66.83
2023-04-18T04:25:28.777Z,66.19
2023-04-18T04:28:15.998Z,66.61
2023-04-18T04:31:06.384Z,66.76
2023-04-18T04:33:53.457Z,67.01
2023-04-18T04:36:41.579Z,66.57
2023-04-18T04:39:28.661Z,66.83
2023-04-18T04:42:15.546Z,66.51
2023-04-18T04:45:03.445Z,66.96
2023-04-18T04:47:50.391Z,66.37
2023-04-18T04:50:38.718Z,66.38
2023-04-18T04:53:27.901Z,66.70
2023-04-18T04:56:14.736Z,67.11
2023-04-18T04:59:01.957Z,66.47
2023-04-18T05:01:48.835Z,67.24
2023-04-18T05:04:36.311Z,66.57
2023-04-18T05:07:23.420Z,66.61
2023-04-18T05:10:10.684Z,66.62
2023-04-18T05:12:57.505Z,67.50
2023-04-18T05:15:44.548Z,66.82
2023-04-18T05:18:33.074Z,67.25
2023-04-18T05:21:21.797Z,67.51
2023-04-18T05:24:08.807Z,67.21
2023-04-18T05:26:55.985Z,67.57
2023-04-18T05:29:42.832Z,66.96
2023-04-18T05:32:29.713Z,67.34
2023-04-18T05:35:16.605Z,66.90
2023-04-18T05:38:03.446Z,67.15
2023-04-18T05:40:55.525Z,67.01
2023-04-18T05:43:44.486Z,67.09
2023-04-18T05:46:35.773Z,67.01
2023-04-18T05:49:22.655Z,67.54
2023-04-18T05:52:09.500Z,67.20
2023-04-18T05:54:56.307Z,67.16
2023-04-18T05:57:43.129Z,67.76
2023-04-18T06:00:29.928Z,67.03
2023-04-18T06:03:17.158Z,67.71
2023-04-18T06:06:04.496Z,67.74
2023-04-18T06:08:51.375Z,67.80
2023-04-18T06:11:38.213Z,67.02
2023-04-18T06:14:26.006Z,67.01
2023-04-18T06:17:13.149Z,67.28
2023-04-18T06:19:59.983Z,67.56
2023-04-18T06:22:46.799Z,67.55
2023-04-18T06:25:33.780Z,67.44
2023-04-18T06:28:20.769Z,68.05
2023-04-18T06:31:08.595Z,67.27
2023-04-18T06:33:55.873Z,67.64
2023-04-18T06:36:43.121Z,67.44
2023-04-18T06:39:30.260Z,67.32
2023-04-18T06:42:17.169Z,67.49
2023-04-18T06:45:05.956Z,67.62
2023-04-18T06:47:53.173Z,67.89
2023-04-18T06:50:40.130Z,67.83
2023-04-18T06:53:26.946Z,67.98
2023-04-18T06:56:13.828Z,68.11
2023-04-18T06:59:00.644Z,67.76
2023-04-18T07:01:47.851Z,68.10
2023-04-18T07:04:34.699Z,67.60
2023-04-18T07:07:21.701Z,67.69
2023-04-18T07:10:09.818Z,67.63
2023-04-18T07:12:56.767Z,67.55
2023-04-18T07:15:43.693Z,67.64
2023-04-18T07:18:37.222Z,67.84
2023-04-18T07:21:25.677Z,68.33
2023-04-18T07:24:13.060Z,67.85
2023-04-18T07:27:01.354Z,68.12
2023-04-18T07:29:48.341Z,67.85
2023-04-18T07:32:35.492Z,68.79
2023-04-18T07:35:22.435Z,68.66
2023-04-18T07:38:10.108Z,69.24
2023-04-18T07:41:01.127Z,68.81
2023-04-18T07:43:47.915Z,68.55
2023-04-18T07:46:34.861Z,68.30
2023-04-18T07:49:21.779Z,68.37
2023-04-18T07:52:08.646Z,68.34
2023-04-18T07:54:55.568Z,67.44
2023-04-18T07:57:45.752Z,67.74
2023-04-18T08:00:33.266Z,67.70
2023-04-18T08:03:20.363Z,67.57
2023-04-18T08:06:07.930Z,67.40
2023-04-18T08:08:54.908Z,67.58
2023-04-18T08:11:42.586Z,67.74
2023-04-18T08:14:29.401Z,67.87
2023-04-18T08:17:16.386Z,68.09
2023-04-18T08:20:07.335Z,67.34
2023-04-18T08:23:05.677Z,67.32
2023-04-18T08:25:53.563Z,67.82
2023-04-18T08:28:41.121Z,67.56
2023-04-18T08:31:28.039Z,67.54
2023-04-18T08:34:14.922Z,67.62
2023-04-18T08:37:01.990Z,67.40
2023-04-18T08:39:48.922Z,67.78
2023-04-18T08:42:36.940Z,67.37
2023-04-18T08:45:24.226Z,68.21
2023-04-18T08:48:14.967Z,67.82
2023-04-18T08:51:02.334Z,67.94
2023-04-18T08:53:50.592Z,68.02
2023-04-18T08:56:37.504Z,68.07
2023-04-18T08:59:25.172Z,67.97
2023-04-18T09:02:13.178Z,67.74
2023-04-18T09:05:00.048Z,67.75
2023-04-18T09:07:47.972Z,67.73
2023-04-18T09:10:36.560Z,67.19
2023-04-18T09:13:47.276Z,67.18
2023-04-18T09:16:47.050Z,67.50
2023-04-18T09:19:33.998Z,67.75
2023-04-18T09:22:20.859Z,67.87
2023-04-18T09:25:09.538Z,67.76
2023-04-18T09:28:01.780Z,67.21
2023-04-18T09:30:51.428Z,67.45
2023-04-18T09:33:42.902Z,67.10
2023-04-18T09:36:31.460Z,67.79
2023-04-18T09:39:27.526Z,67.70
2023-04-18T09:42:14.455Z,67.25
2023-04-18T09:45:06.574Z,67.28
2023-04-18T09:47:53.975Z,66.87
2023-04-18T09:50:41.673Z,67.44
2023-04-18T09:53:28.791Z,67.47
2023-04-18T09:56:20.828Z,66.94
2023-04-18T09:59:09.307Z,67.29
2023-04-18T10:01:58.282Z,67.06
2023-04-18T10:04:46.896Z,66.81
2023-04-18T10:07:34.149Z,67.55
2023-04-18T10:10:21.033Z,67.16
2023-04-18T10:13:11.893Z,67.69
2023-04-18T10:15:59.010Z,67.05
2023-04-18T10:18:46.172Z,67.52
2023-04-18T10:21:34.234Z,66.82
2023-04-18T10:24:49.514Z,67.33
2023-04-18T10:27:48.698Z,67.12
2023-04-18T10:30:40.005Z,66.67
2023-04-18T10:33:36.056Z,66.84
2023-04-18T10:36:29.092Z,66.57
2023-04-18T10:39:23.289Z,67.35
2023-04-18T10:42:10.464Z,67.30
2023-04-18T10:45:17.813Z,67.02
2023-04-18T10:48:29.897Z,66.43
2023-04-18T10:51:21.934Z,66.44
2023-04-18T10:54:11.043Z,67.13
2023-04-18T10:56:58.636Z,66.57
2023-04-18T10:59:49.276Z,66.40
2023-04-18T11:02:37.204Z,66.50
2023-04-18T11:05:26.733Z,66.85
2023-04-18T11:08:23.934Z,66.91
2023-04-18T11:11:11.390Z,67.19
2023-04-18T11:13:58.921Z,66.42
2023-04-18T11:16:45.965Z,66.40
2023-04-18T11:19:32.829Z,66.60
2023-04-18T11:22:19.762Z,66.73
2023-04-18T11:25:09.900Z,67.03
2023-04-18T11:27:59.810Z,66.96
2023-04-18T11:30:47.082Z,66.82
2023-04-18T11:33:34.222Z,66.41
2023-04-18T11:36:21.060Z,66.52
2023-04-18T11:39:08.144Z,66.34
2023-04-18T11:41:57.111Z,66.34
2023-04-18T11:44:47.707Z,67.14
2023-04-18T11:47:34.920Z,66.72
2023-04-18T11:50:21.882Z,66.93
2023-04-18T11:53:08.716Z,66.94
2023-04-18T11:55:55.999Z,66.44
2023-04-18T11:58:43.086Z,66.86
2023-04-18T12:01:29.957Z,66.28
2023-04-18T12:04:19.101Z,66.67
2023-04-18T12:07:06.284Z,66.86
2023-04-18T12:09:53.130Z,66.38
2023-04-18T12:12:51.198Z,66.30
2023-04-18T12:15:40.373Z,66.33
2023-04-18T12:18:27.358Z,66.42
2023-04-18T12:21:16.917Z,66.27
2023-04-18T12:24:15.926Z,66.28
2023-04-18T12:27:03.438Z,66.18
2023-04-18T12:29:50.579Z,66.25
2023-04-18T12:32:37.410Z,66.85
2023-04-18T12:35:25.028Z,66.42
2023-04-18T12:38:11.855Z,66.32
2023-04-18T12:40:58.730Z,66.90
2023-04-18T12:43:45.648Z,66.67
2023-04-18T12:46:32.567Z,66.22
2023-04-18T12:49:19.452Z,66.51
2023-04-18T12:52:06.300Z,66.97
2023-04-18T12:54:53.232Z,66.83
2023-04-18T12:57:41.349Z,66.36
2023-04-18T13:00:31.245Z,66.62
2023-04-18T13:03:18.510Z,66.35
2023-04-18T13:06:06.572Z,65.92
2023-04-18T13:08:53.414Z,66.41
2023-04-18T13:11:40.232Z,66.12
2023-04-18T13:14:27.058Z,66.40
2023-04-18T13:17:13.886Z,66.17
2023-04-18T13:20:00.816Z,66.08
2023-04-18T13:22:47.789Z,65.92
2023-04-18T13:25:34.591Z,66.07
2023-04-18T13:28:21.461Z,66.14
2023-04-18T13:31:08.289Z,66.23
2023-04-18T13:33:55.377Z,66.30
2023-04-18T13:36:42.242Z,66.04
2023-04-18T13:39:31.834Z,66.25
2023-04-18T13:42:19.517Z,66.00
2023-04-18T13:45:07.308Z,65.84
2023-04-18T13:47:54.711Z,66.13
2023-04-18T13:50:42.669Z,65.82
2023-04-18T13:53:30.812Z,65.75
2023-04-18T13:56:18.200Z,65.90
2023-04-18T13:59:05.016Z,66.11
2023-04-18T14:01:53.089Z,66.42
2023-04-18T14:04:40.152Z,66.15
2023-04-18T14:07:27.144Z,66.29
2023-04-18T14:10:14.030Z,66.50
2023-04-18T14:13:00.907Z,66.08
2023-04-18T14:15:47.845Z,66.32
2023-04-18T14:18:34.682Z,66.02
2023-04-18T14:21:21.507Z,66.11
2023-04-18T14:24:08.423Z,66.07
2023-04-18T14:26:55.455Z,66.27
2023-04-18T14:29:42.287Z,65.91
2023-04-18T14:32:29.914Z,66.01
2023-04-18T14:35:16.900Z,65.66
2023-04-18T14:38:03.686Z,66.11
2023-04-18T14:40:50.522Z,65.73
2023-04-18T14:43:37.364Z,65.65
2023-04-18T14:46:24.355Z,65.67
2023-04-18T14:49:11.482Z,66.04
2023-04-18T14:51:58.297Z,66.08
2023-04-18T14:54:45.141Z,66.21
2023-04-18T14:57:31.969Z,65.96
2023-04-18T15:00:19.334Z,65.96
2023-04-18T15:03:07.697Z,66.19
2023-04-18T15:05:56.409Z,66.05
2023-04-18T15:08:44.381Z,65.87
2023-04-18T15:11:31.194Z,65.49
2023-04-18T15:14:18.110Z,65.90
2023-04-18T15:17:05.454Z,65.63
2023-04-18T15:19:52.504Z,65.76
2023-04-18T15:22:39.368Z,65.49
2023-04-18T15:25:26.267Z,65.78
2023-04-18T15:28:13.995Z,66.09
2023-04-18T15:31:00.919Z,65.50
2023-04-18T15:33:47.865Z,65.55
2023-04-18T15:36:35.962Z,66.01
2023-04-18T15:39:23.610Z,65.45
2023-04-18T15:42:10.634Z,65.29
2023-04-18T15:44:57.467Z,65.06
2023-04-18T15:47:44.366Z,64.97
2023-04-18T15:50:33.429Z,65.13
2023-04-18T15:53:20.798Z,64.81
2023-04-18T15:56:07.706Z,65.02
2023-04-18T15:58:59.246Z,64.85
2023-04-18T16:01:46.391Z,65.10
2023-04-18T16:04:33.414Z,64.94
2023-04-18T16:07:20.371Z,64.71
2023-04-18T16:10:11.222Z,65.45
2023-04-18T16:12:59.478Z,65.57
2023-04-18T16:15:46.401Z,65.36
2023-04-18T16:18:33.969Z,65.29
2023-04-18T16:21:20.893Z,65.57
2023-04-18T16:24:07.722Z,65.57
2023-04-18T16:26:55.584Z,65.06
2023-04-18T16:29:44.444Z,64.90
2023-04-18T16:32:31.322Z,64.75
2023-04-18T16:35:18.401Z,64.83
2023-04-18T16:38:05.457Z,65.05
2023-04-18T16:40:52.309Z,65.02
2023-04-18T16:43:39.122Z,65.17
2023-04-18T16:46:26.067Z,64.97
2023-04-18T16:49:13.115Z,65.05
2023-04-18T16:52:00.083Z,65.07
2023-04-18T16:54:46.935Z,65.01
2023-04-18T16:57:33.827Z,65.09
2023-04-18T17:00:21.111Z,65.50
2023-04-18T17:03:10.114Z,65.49
2023-04-18T17:05:57.086Z,65.26
2023-04-18T17:08:44.104Z,62.35
2023-04-18T17:11:34.679Z,63.37
2023-04-18T17:14:21.802Z,64.18
2023-04-18T17:17:08.663Z,65.26
2023-04-18T17:19:57.337Z,65.33
2023-04-18T17:22:44.543Z,66.13
2023-04-18T17:25:31.861Z,66.14
2023-04-18T17:28:18.889Z,66.00
2023-04-18T17:31:05.862Z,66.28
2023-04-18T17:33:54.438Z,66.17
2023-04-18T17:36:41.441Z,65.99
2023-04-18T17:39:28.442Z,66.04
2023-04-18T17:42:15.472Z,65.86
2023-04-18T17:45:09.547Z,65.94
2023-04-18T17:47:58.221Z,66.02
2023-04-18T17:50:45.123Z,65.56
2023-04-18T17:53:32.444Z,65.63
2023-04-18T17:56:19.452Z,65.93
2023-04-18T17:59:07.438Z,65.70
2023-04-18T18:01:54.522Z,65.70
2023-04-18T18:04:41.697Z,65.55
2023-04-18T18:07:28.736Z,65.67
2023-04-18T18:10:23.000Z,65.69
2023-04-18T18:13:10.064Z,65.69
2023-04-18T18:15:58.026Z,65.64
2023-04-18T18:18:44.931Z,65.65
2023-04-18T18:21:31.975Z,65.64
2023-04-18T18:24:18.900Z,65.66
2023-04-18T18:27:06.124Z,65.90
2023-04-18T18:29:53.211Z,65.69
2023-04-18T18:32:40.036Z,65.71
2023-04-18T18:35:26.898Z,65.82
2023-04-18T18:38:13.927Z,65.92
2023-04-18T18:41:03.598Z,66.01
2023-04-18T18:43:51.488Z,65.96
2023-04-18T18:46:38.403Z,65.80
2023-04-18T18:49:26.512Z,65.77
2023-04-18T18:52:13.420Z,65.76
2023-04-18T18:55:01.434Z,65.54
2023-04-18T18:57:48.427Z,65.68
2023-04-18T19:00:35.601Z,65.94
2023-04-18T19:03:23.404Z,65.81
2023-04-18T19:06:10.340Z,65.75
2023-04-18T19:08:57.173Z,65.95
2023-04-18T19:11:43.990Z,65.70
2023-04-18T19:14:30.816Z,65.77
2023-04-18T19:17:19.188Z,65.74
2023-04-18T19:20:06.729Z,65.87
2023-04-18T19:22:53.560Z,65.36
2023-04-18T19:25:40.460Z,65.68
2023-04-18T19:28:27.661Z,65.77
2023-04-18T19:31:14.610Z,65.68
2023-04-18T19:34:01.783Z,65.71
2023-04-18T19:36:48.745Z,65.75
2023-04-18T19:39:35.650Z,65.74
2023-04-18T19:42:22.472Z,65.65
2023-04-18T19:45:11.849Z,65.83
2023-04-18T19:47:58.772Z,65.77
2023-04-18T19:50:45.936Z,65.73
2023-04-18T19:53:32.879Z,65.82
2023-04-18T19:56:19.784Z,65.66
2023-04-18T19:59:06.814Z,65.59
2023-04-18T20:01:53.649Z,65.84
2023-04-18T20:04:41.784Z,65.65
2023-04-18T20:07:28.826Z,65.71
2023-04-18T20:10:15.830Z,65.72
2023-04-18T20:13:02.758Z,65.70
2023-04-18T20:15:49.967Z,65.51
2023-04-18T20:18:39.621Z,65.56
2023-04-18T20:21:27.259Z,65.64
2023-04-18T20:24:15.559Z,65.52
2023-04-18T20:27:02.984Z,65.26
2023-04-18T20:29:49.974Z,65.41
2023-04-18T20:32:36.863Z,65.47
2023-04-18T20:35:23.905Z,65.39
2023-04-18T20:38:12.372Z,65.27
2023-04-18T20:41:00.510Z,65.26
2023-04-18T20:43:47.406Z,65.11
2023-04-18T20:46:34.339Z,65.29
2023-04-18T20:49:21.328Z,65.38
2023-04-18T20:52:09.572Z,65.13
2023-04-18T20:54:56.408Z,65.20
2023-04-18T20:57:43.353Z,65.19
2023-04-18T21:00:30.386Z,65.19
2023-04-18T21:03:17.526Z,65.29
2023-04-18T21:06:04.525Z,65.23
2023-04-18T21:08:51.433Z,65.10
2023-04-18T21:11:38.341Z,65.08
2023-04-18T21:14:25.234Z,64.95
2023-04-18T21:17:16.987Z,64.81
2023-04-18T21:20:03.944Z,64.98
2023-04-18T21:22:50.806Z,64.96
2023-04-18T21:25:37.683Z,64.76
2023-04-18T21:28:24.518Z,64.87
2023-04-18T21:31:11.410Z,64.52
2023-04-18T21:33:59.820Z,64.81
2023-04-18T21:36:46.662Z,64.81
2023-04-18T21:39:33.594Z,64.89
2023-04-18T21:42:20.454Z,64.75
2023-04-18T21:45:08.017Z,64.73
2023-04-18T21:47:55.081Z,64.68
2023-04-18T21:50:43.105Z,64.64
2023-04-18T21:53:30.005Z,64.68
2023-04-18T21:56:17.157Z,64.55
2023-04-18T21:59:04.253Z,64.53
2023-04-18T22:01:51.175Z,64.65
2023-04-18T22:04:42.590Z,64.70
2023-04-18T22:07:29.566Z,64.41
2023-04-18T22:10:17.713Z,64.58
2023-04-18T22:13:04.819Z,64.76
2023-04-18T22:15:51.837Z,64.50
2023-04-18T22:18:38.662Z,64.58
2023-04-18T22:21:25.856Z,64.67
2023-04-18T22:24:12.898Z,64.71
2023-04-18T22:27:01.186Z,64.63
2023-04-18T22:29:48.015Z,64.73
2023-04-18T22:32:34.953Z,64.50
2023-04-18T22:35:22.076Z,64.40
2023-04-18T22:38:10.202Z,64.37
2023-04-18T22:40:57.030Z,64.56
2023-04-18T22:43:44.145Z,64.67
2023-04-18T22:46:31.018Z,64.31
2023-04-18T22:49:18.030Z,64.33
2023-04-18T22:52:06.187Z,63.95
2023-04-18T22:54:53.298Z,64.40
2023-04-18T22:57:40.129Z,64.47
2023-04-18T23:00:26.955Z,64.28
2023-04-18T23:03:13.861Z,64.29
2023-04-18T23:06:01.300Z,64.34
2023-04-18T23:08:48.129Z,64.21
2023-04-18T23:11:35.164Z,64.38
2023-04-18T23:14:22.520Z,64.47
2023-04-18T23:17:09.373Z,64.28
2023-04-18T23:19:56.266Z,64.37
2023-04-18T23:22:43.203Z,64.35
2023-04-18T23:25:33.191Z,64.51
2023-04-18T23:28:20.053Z,64.12
2023-04-18T23:31:06.996Z,64.20
2023-04-18T23:33:55.409Z,64.13
2023-04-18T23:36:42.390Z,64.27
2023-04-18T23:39:29.296Z,64.29
2023-04-18T23:42:16.160Z,64.39
2023-04-18T23:45:04.072Z,64.42
2023-04-18T23:47:51.511Z,64.13
2023-04-18T23:50:47.768Z,64.01
2023-04-18T23:53:34.591Z,64.25
2023-04-18T23:56:23.150Z,64.15
2023-04-18T23:59:09.977Z,64.47
